Time;durP1;ratioP1;P1;durP2;ratioP2;P2;SDS_P1;SDS_P2;PMS_P1;PMS_P2;Temp;Humidity;BMP_temperature;BMP_pressure;BME280_temperature;BME280_humidity;BME280_pressure;Samples;Min_cycle;Max_cycle;Signal;HPM_P1;HPM_P2
2021/07/31 00:01:06;;;;;;;;;;;16.70;99.90;;;;;;6347476;28;20070;-68
2021/07/31 00:04:07;;;;;;;;;;;16.60;99.90;;;;;;6319110;28;19980;-68
2021/07/31 00:07:09;;;;;;;;;;;16.60;99.90;;;;;;6318669;28;20054;-67
2021/07/31 00:10:11;;;;;;;;;;;16.60;99.90;;;;;;6345525;28;20100;-68
2021/07/31 00:13:13;;;;;;;;;;;16.60;99.90;;;;;;6344244;28;19980;-68
2021/07/31 00:16:15;;;;;;;;;;;16.70;99.90;;;;;;6347063;28;20434;-67
2021/07/31 00:19:16;;;;;;;;;;;16.70;99.90;;;;;;6334699;28;19972;-67
2021/07/31 00:22:18;;;;;;;;;;;16.70;99.90;;;;;;6322621;28;20058;-67
2021/07/31 00:25:19;;;;;;;;;;;16.70;99.90;;;;;;6342881;28;19988;-68
2021/07/31 00:28:21;;;;;;;;;;;16.70;99.90;;;;;;6344695;28;19979;-67
2021/07/31 00:31:23;;;;;;;;;;;16.70;99.90;;;;;;6346952;28;19982;-67
2021/07/31 00:34:25;;;;;;;;;;;16.70;99.90;;;;;;6343651;28;20060;-67
2021/07/31 00:37:26;;;;;;;;;;;16.60;99.90;;;;;;6323518;28;19995;-67
2021/07/31 00:40:28;;;;;;;;;;;16.60;99.90;;;;;;6344992;28;20411;-68
2021/07/31 00:43:30;;;;;;;;;;;16.50;99.90;;;;;;6343671;28;19979;-68
2021/07/31 00:46:31;;;;;;;;;;;16.50;99.90;;;;;;6346356;28;20363;-67
2021/07/31 00:49:36;;;;;;;;;;;16.50;99.90;;;;;;6338776;28;19983;-67
2021/07/31 00:52:38;;;;;;;;;;;16.40;99.90;;;;;;6325038;28;20346;-67
2021/07/31 00:55:40;;;;;;;;;;;16.30;99.90;;;;;;6344316;28;20384;-67
2021/07/31 00:58:42;;;;;;;;;;;16.30;99.90;;;;;;6339961;28;19972;-67
2021/07/31 01:01:44;;;;;;;;;;;16.20;99.90;;;;;;6345639;28;20474;-67
2021/07/31 01:04:45;;;;;;;;;;;16.20;99.90;;;;;;6342699;28;20326;-67
2021/07/31 01:07:48;;;;;;;;;;;16.20;99.90;;;;;;6339604;28;19972;-67
2021/07/31 01:10:49;;;;;;;;;;;16.20;99.90;;;;;;6314836;28;19972;-67
2021/07/31 01:13:51;;;;;;;;;;;16.10;99.90;;;;;;6343292;28;19972;-67
2021/07/31 01:16:54;;;;;;;;;;;16.10;99.90;;;;;;6312131;28;20004;-67
2021/07/31 01:19:56;;;;;;;;;;;16.10;99.90;;;;;;6330589;28;19984;-67
2021/07/31 01:22:57;;;;;;;;;;;16.10;99.90;;;;;;6342539;28;19975;-67
2021/07/31 01:25:59;;;;;;;;;;;16.10;99.90;;;;;;6338616;28;20014;-67
2021/07/31 01:29:03;;;;;;;;;;;16.10;99.90;;;;;;6340748;28;19976;-67
2021/07/31 01:32:05;;;;;;;;;;;16.00;99.90;;;;;;6317491;28;19988;-67
2021/07/31 01:35:07;;;;;;;;;;;16.00;99.90;;;;;;6343618;28;19983;-68
2021/07/31 01:38:08;;;;;;;;;;;16.00;99.90;;;;;;6341615;28;19976;-67
2021/07/31 01:41:10;;;;;;;;;;;16.00;99.90;;;;;;6345752;28;19984;-67
2021/07/31 01:44:12;;;;;;;;;;;16.00;99.90;;;;;;6323797;28;19984;-67
2021/07/31 01:47:14;;;;;;;;;;;16.00;99.90;;;;;;6341404;28;20313;-67
2021/07/31 01:50:16;;;;;;;;;;;16.00;99.90;;;;;;6345273;28;19982;-68
2021/07/31 01:53:17;;;;;;;;;;;16.00;99.90;;;;;;6341673;28;19971;-67
2021/07/31 02:04:27;;;;;;;;;;;16.00;99.90;;;;;;6331714;28;19960;-67
2021/07/31 02:07:29;;;;;;;;;;;16.00;99.90;;;;;;6338404;28;20470;-67
2021/07/31 02:10:30;;;;;;;;;;;16.00;99.90;;;;;;6342089;28;20027;-67
2021/07/31 02:13:32;;;;;;;;;;;16.00;99.90;;;;;;6341168;28;20368;-68
2021/07/31 02:16:34;;;;;;;;;;;16.00;99.90;;;;;;6343871;28;20000;-68
2021/07/31 02:19:35;;;;;;;;;;;16.00;99.90;;;;;;6312099;28;20402;-67
2021/07/31 02:22:37;;;;;;;;;;;16.00;99.90;;;;;;6310504;28;20523;-68
2021/07/31 02:25:39;;;;;;;;;;;16.00;99.90;;;;;;6325893;28;19972;-67
2021/07/31 02:28:40;;;;;;;;;;;16.00;99.90;;;;;;6307784;28;19983;-67
2021/07/31 02:31:42;;;;;;;;;;;16.00;99.90;;;;;;6313610;28;19972;-68
2021/07/31 02:34:44;;;;;;;;;;;15.90;99.90;;;;;;6334043;28;19971;-68
2021/07/31 02:37:45;;;;;;;;;;;15.90;99.90;;;;;;6312130;28;19991;-68
2021/07/31 02:40:47;;;;;;;;;;;15.90;99.90;;;;;;6344580;28;19982;-67
2021/07/31 02:43:49;;;;;;;;;;;15.80;99.90;;;;;;6313550;28;19979;-68
2021/07/31 02:46:50;;;;;;;;;;;15.80;99.90;;;;;;6343456;28;20006;-68
2021/07/31 02:49:52;;;;;;;;;;;15.80;99.90;;;;;;6339807;28;20033;-68
2021/07/31 02:52:53;;;;;;;;;;;15.80;99.90;;;;;;6341424;28;19975;-67
2021/07/31 02:55:55;;;;;;;;;;;15.80;99.90;;;;;;6307572;28;19962;-67
2021/07/31 02:58:57;;;;;;;;;;;15.70;99.90;;;;;;6319231;28;20463;-67
2021/07/31 03:01:59;;;;;;;;;;;15.80;99.90;;;;;;6342339;28;20423;-67
2021/07/31 03:05:00;;;;;;;;;;;15.80;99.90;;;;;;6342658;28;20021;-67
2021/07/31 03:08:02;;;;;;;;;;;15.70;99.90;;;;;;6322560;28;20076;-67
2021/07/31 03:11:06;;;;;;;;;;;15.70;99.90;;;;;;6312436;28;20401;-68
2021/07/31 03:14:08;;;;;;;;;;;15.70;99.90;;;;;;6340475;28;19983;-67
2021/07/31 03:17:09;;;;;;;;;;;15.70;99.90;;;;;;6341182;28;20003;-67
2021/07/31 03:20:11;;;;;;;;;;;15.70;99.90;;;;;;6332541;28;19975;-67
2021/07/31 03:23:17;;;;;;;;;;;15.70;99.90;;;;;;6338487;28;20372;-67
2021/07/31 03:26:18;;;;;;;;;;;15.70;99.90;;;;;;6317078;28;19988;-67
2021/07/31 03:29:20;;;;;;;;;;;15.70;99.90;;;;;;6315525;28;20311;-67
2021/07/31 03:32:21;;;;;;;;;;;15.70;99.90;;;;;;6344658;28;20069;-67
2021/07/31 03:35:23;;;;;;;;;;;15.60;99.90;;;;;;6348057;28;20384;-67
2021/07/31 03:38:25;;;;;;;;;;;15.60;99.90;;;;;;6346738;28;19976;-67
2021/07/31 03:41:26;;;;;;;;;;;15.60;99.90;;;;;;6348242;28;20468;-68
2021/07/31 03:44:28;;;;;;;;;;;15.70;99.90;;;;;;6344248;28;19976;-67
2021/07/31 03:47:30;;;;;;;;;;;15.70;99.90;;;;;;6314055;28;19992;-67
2021/07/31 03:50:32;;;;;;;;;;;15.70;99.90;;;;;;6345803;28;20066;-67
2021/07/31 03:53:33;;;;;;;;;;;15.70;99.90;;;;;;6344446;28;19976;-67
2021/07/31 03:56:35;;;;;;;;;;;15.60;99.90;;;;;;6320696;28;19988;-68
2021/07/31 03:59:37;;;;;;;;;;;15.70;99.90;;;;;;6340207;28;19980;-68
2021/07/31 04:02:38;;;;;;;;;;;15.70;99.90;;;;;;6343946;28;19983;-67
2021/07/31 04:05:40;;;;;;;;;;;15.60;99.90;;;;;;6347810;28;20007;-68
2021/07/31 04:08:42;;;;;;;;;;;15.60;99.90;;;;;;6340986;28;19994;-67
2021/07/31 04:11:44;;;;;;;;;;;15.60;99.90;;;;;;6347474;28;19980;-68
2021/07/31 04:14:45;;;;;;;;;;;15.60;99.90;;;;;;6343816;28;20431;-68
2021/07/31 04:17:47;;;;;;;;;;;15.60;99.90;;;;;;6335597;28;19999;-67
2021/07/31 04:20:49;;;;;;;;;;;15.60;99.90;;;;;;6344336;28;19980;-68
2021/07/31 04:23:50;;;;;;;;;;;15.60;99.90;;;;;;6344174;28;19983;-68
2021/07/31 04:26:52;;;;;;;;;;;15.60;99.90;;;;;;6345961;28;20508;-67
2021/07/31 04:29:54;;;;;;;;;;;15.60;99.90;;;;;;6336243;28;19986;-68
2021/07/31 04:32:56;;;;;;;;;;;15.60;99.90;;;;;;6343484;28;20426;-68
2021/07/31 04:36:00;;;;;;;;;;;15.60;99.90;;;;;;6326668;28;19983;-68
2021/07/31 04:39:02;;;;;;;;;;;15.60;99.90;;;;;;6342615;28;19983;-68
2021/07/31 04:42:05;;;;;;;;;;;15.70;99.90;;;;;;6343765;28;20005;-68
2021/07/31 04:45:07;;;;;;;;;;;15.60;99.90;;;;;;6346039;28;19987;-68
2021/07/31 04:48:09;;;;;;;;;;;15.70;99.90;;;;;;6342402;28;20019;-68
2021/07/31 04:51:10;;;;;;;;;;;15.70;99.90;;;;;;6346646;28;19980;-67
2021/07/31 04:54:12;;;;;;;;;;;15.70;99.90;;;;;;6336403;28;20021;-67
2021/07/31 04:57:14;;;;;;;;;;;15.80;99.90;;;;;;6343545;28;19987;-67
2021/07/31 05:00:15;;;;;;;;;;;15.80;99.90;;;;;;6321381;28;19975;-68
2021/07/31 05:03:17;;;;;;;;;;;15.80;99.90;;;;;;6342356;28;20040;-67
2021/07/31 05:06:21;;;;;;;;;;;15.80;99.90;;;;;;6345859;28;19972;-68
2021/07/31 05:09:23;;;;;;;;;;;15.80;99.90;;;;;;6341441;28;20422;-68
2021/07/31 05:12:24;;;;;;;;;;;15.90;99.90;;;;;;6307007;28;19972;-67
2021/07/31 05:15:26;;;;;;;;;;;15.90;99.90;;;;;;6342950;28;19980;-67
2021/07/31 05:18:27;;;;;;;;;;;15.90;99.90;;;;;;6311358;28;20366;-68
2021/07/31 05:21:29;;;;;;;;;;;15.90;99.90;;;;;;6339939;28;20352;-67
2021/07/31 05:24:31;;;;;;;;;;;15.80;99.90;;;;;;6342974;28;19979;-67
2021/07/31 05:27:32;;;;;;;;;;;15.80;99.90;;;;;;6311930;28;19995;-67
2021/07/31 05:30:36;;;;;;;;;;;15.80;99.90;;;;;;6345964;28;20007;-67
2021/07/31 05:33:38;;;;;;;;;;;15.80;99.90;;;;;;6341577;28;19975;-68
2021/07/31 05:36:39;;;;;;;;;;;15.80;99.90;;;;;;6314720;28;19986;-67
2021/07/31 05:39:42;;;;;;;;;;;15.70;99.90;;;;;;6338249;28;20458;-67
2021/07/31 05:42:46;;;;;;;;;;;15.80;99.90;;;;;;6342429;28;20307;-67
2021/07/31 05:45:48;;;;;;;;;;;15.80;99.90;;;;;;6345591;28;19976;-68
2021/07/31 05:48:50;;;;;;;;;;;15.80;99.90;;;;;;6343411;28;19979;-67
2021/07/31 05:51:52;;;;;;;;;;;15.80;99.90;;;;;;6342457;28;20131;-67
2021/07/31 05:54:54;;;;;;;;;;;15.90;99.90;;;;;;6314745;28;19980;-67
2021/07/31 05:57:56;;;;;;;;;;;15.90;99.90;;;;;;6317089;28;20457;-67
2021/07/31 06:00:58;;;;;;;;;;;15.90;99.90;;;;;;6344782;28;19980;-68
2021/07/31 06:03:59;;;;;;;;;;;15.90;99.90;;;;;;6338352;28;20007;-68
2021/07/31 06:07:01;;;;;;;;;;;16.00;99.90;;;;;;6343241;28;20379;-67
2021/07/31 06:10:03;;;;;;;;;;;16.00;99.90;;;;;;6344091;28;19980;-67
2021/07/31 06:13:05;;;;;;;;;;;15.90;99.90;;;;;;6339078;28;19980;-68
2021/07/31 06:16:07;;;;;;;;;;;15.90;99.90;;;;;;6344415;28;20058;-68
2021/07/31 06:19:09;;;;;;;;;;;16.00;99.90;;;;;;6333134;28;19980;-67
2021/07/31 06:22:11;;;;;;;;;;;16.00;99.90;;;;;;6334305;28;20490;-67
2021/07/31 06:25:12;;;;;;;;;;;16.00;99.90;;;;;;6343714;28;20354;-68
2021/07/31 06:28:14;;;;;;;;;;;16.00;99.90;;;;;;6317800;28;19995;-68
2021/07/31 06:31:15;;;;;;;;;;;16.00;99.90;;;;;;6344303;28;19978;-67
2021/07/31 06:34:17;;;;;;;;;;;16.10;99.90;;;;;;6339561;28;20067;-68
2021/07/31 06:37:19;;;;;;;;;;;16.10;99.90;;;;;;6325004;28;20081;-68
2021/07/31 06:40:21;;;;;;;;;;;16.10;99.90;;;;;;6345184;28;19982;-67
2021/07/31 06:43:22;;;;;;;;;;;16.10;99.90;;;;;;6306843;28;20079;-67
2021/07/31 06:46:24;;;;;;;;;;;16.10;99.90;;;;;;6320759;28;19999;-68
2021/07/31 06:49:26;;;;;;;;;;;16.20;99.90;;;;;;6310585;28;20426;-68
2021/07/31 06:52:28;;;;;;;;;;;16.20;99.90;;;;;;6330422;28;19980;-67
2021/07/31 06:55:29;;;;;;;;;;;16.20;99.90;;;;;;6341261;28;20503;-67
2021/07/31 06:58:31;;;;;;;;;;;16.30;99.90;;;;;;6336259;28;19983;-68
2021/07/31 07:01:32;;;;;;;;;;;16.30;99.90;;;;;;6343711;28;19984;-67
2021/07/31 07:04:34;;;;;;;;;;;16.40;99.90;;;;;;6338287;28;20022;-67
2021/07/31 07:07:37;;;;;;;;;;;16.40;99.90;;;;;;6347519;28;20090;-68
2021/07/31 07:10:39;;;;;;;;;;;16.50;99.90;;;;;;6349120;28;20066;-67
2021/07/31 07:13:41;;;;;;;;;;;16.50;99.90;;;;;;6315656;28;20021;-67
2021/07/31 07:16:43;;;;;;;;;;;16.50;99.90;;;;;;6349071;28;19995;-68
2021/07/31 07:19:44;;;;;;;;;;;16.60;99.90;;;;;;6344394;28;20437;-68
2021/07/31 07:22:46;;;;;;;;;;;16.50;99.90;;;;;;6341287;28;19975;-68
2021/07/31 07:25:48;;;;;;;;;;;16.60;99.90;;;;;;6317984;28;20344;-67
2021/07/31 07:28:49;;;;;;;;;;;16.60;99.90;;;;;;6339818;28;20466;-68
2021/07/31 07:31:51;;;;;;;;;;;16.60;99.90;;;;;;6346667;28;19976;-69
2021/07/31 07:34:52;;;;;;;;;;;16.60;99.90;;;;;;6343212;28;20020;-69
2021/07/31 07:37:54;;;;;;;;;;;16.60;99.90;;;;;;6328288;28;19982;-68
2021/07/31 07:40:56;;;;;;;;;;;16.70;99.90;;;;;;6348173;28;19980;-69
2021/07/31 07:43:57;;;;;;;;;;;16.60;99.90;;;;;;6321511;28;19976;-68
2021/07/31 07:46:59;;;;;;;;;;;16.70;99.90;;;;;;6315017;28;19995;-69
2021/07/31 07:50:01;;;;;;;;;;;16.70;99.90;;;;;;6347054;28;19980;-69
2021/07/31 07:53:03;;;;;;;;;;;16.70;99.90;;;;;;6342436;28;19979;-66
2021/07/31 07:56:04;;;;;;;;;;;16.70;99.90;;;;;;6329739;28;20463;-66
2021/07/31 07:59:06;;;;;;;;;;;16.70;99.90;;;;;;6346022;28;19947;-66
2021/07/31 08:02:08;;;;;;;;;;;16.70;99.90;;;;;;6337004;28;19980;-66
2021/07/31 08:05:12;;;;;;;;;;;16.70;99.90;;;;;;6346731;28;19979;-66
2021/07/31 08:08:14;;;;;;;;;;;16.60;99.90;;;;;;6346221;28;20007;-66
2021/07/31 08:11:16;;;;;;;;;;;16.60;99.90;;;;;;6329495;28;20044;-66
2021/07/31 08:14:17;;;;;;;;;;;16.50;99.90;;;;;;6339954;28;20447;-66
2021/07/31 08:17:19;;;;;;;;;;;16.40;99.90;;;;;;6344947;28;20003;-66
2021/07/31 08:20:21;;;;;;;;;;;16.40;99.90;;;;;;6334624;28;19983;-66
2021/07/31 08:23:23;;;;;;;;;;;16.40;99.90;;;;;;6343555;28;19975;-66
2021/07/31 08:26:24;;;;;;;;;;;16.40;99.90;;;;;;6340367;28;19971;-66
2021/07/31 08:29:26;;;;;;;;;;;16.50;99.90;;;;;;6320336;28;20024;-66
2021/07/31 08:32:27;;;;;;;;;;;16.50;99.90;;;;;;6329695;28;19976;-66
2021/07/31 08:35:29;;;;;;;;;;;16.50;99.90;;;;;;6309537;28;19976;-65
2021/07/31 08:38:31;;;;;;;;;;;16.50;99.90;;;;;;6346199;28;19984;-66
2021/07/31 08:41:35;;;;;;;;;;;16.50;99.90;;;;;;6339217;28;20308;-66
2021/07/31 08:44:37;;;;;;;;;;;16.50;99.90;;;;;;6313919;28;20377;-66
2021/07/31 08:47:39;;;;;;;;;;;16.40;99.90;;;;;;6326397;28;20510;-66
2021/07/31 08:50:41;;;;;;;;;;;16.30;99.90;;;;;;6346688;28;20354;-66
2021/07/31 08:53:43;;;;;;;;;;;16.30;99.90;;;;;;6338459;28;19981;-66
2021/07/31 08:56:45;;;;;;;;;;;16.30;99.90;;;;;;6317664;28;19983;-66
2021/07/31 08:59:47;;;;;;;;;;;16.30;99.90;;;;;;6345268;28;19986;-67
2021/07/31 09:02:48;;;;;;;;;;;16.30;99.90;;;;;;6338709;28;19976;-66
2021/07/31 09:05:50;;;;;;;;;;;16.30;99.90;;;;;;6345941;28;19975;-66
2021/07/31 09:08:53;;;;;;;;;;;16.30;99.90;;;;;;6345157;28;19984;-66
2021/07/31 09:12:02;;;;;;;;;;;16.40;99.90;;;;;;6304806;28;19988;-65
2021/07/31 09:15:04;;;;;;;;;;;16.40;99.90;;;;;;6342475;28;20419;-66
2021/07/31 09:18:26;;;;;;;;;;;16.50;99.90;;;;;;6338768;28;19999;-66
2021/07/31 09:21:29;;;;;;;;;;;16.60;99.90;;;;;;6316507;28;20392;-67
2021/07/31 09:24:31;;;;;;;;;;;16.80;99.90;;;;;;6338133;28;20089;-66
2021/07/31 09:27:33;;;;;;;;;;;16.90;99.90;;;;;;6340440;28;19991;-66
2021/07/31 09:30:48;;;;;;;;;;;17.10;99.90;;;;;;6346366;28;19983;-66
2021/07/31 09:33:50;;;;;;;;;;;17.00;99.90;;;;;;6317161;28;19987;-66
2021/07/31 09:37:03;;;;;;;;;;;17.00;99.90;;;;;;6345154;28;19972;-66
2021/07/31 09:40:08;;;;;;;;;;;17.00;99.90;;;;;;6345605;28;19976;-66
2021/07/31 09:43:14;;;;;;;;;;;16.90;99.90;;;;;;6340771;28;20385;-66
2021/07/31 09:46:45;;;;;;;;;;;16.80;99.90;;;;;;6345411;28;20288;-66
2021/07/31 09:49:47;;;;;;;;;;;16.70;99.90;;;;;;6327662;28;19986;-66
2021/07/31 09:52:48;;;;;;;;;;;16.70;99.90;;;;;;6341643;28;19984;-66
2021/07/31 09:55:51;;;;;;;;;;;16.70;99.90;;;;;;6345030;28;19997;-66
2021/07/31 09:58:54;;;;;;;;;;;16.60;99.90;;;;;;6336290;28;20435;-66
2021/07/31 10:02:03;;;;;;;;;;;16.60;99.90;;;;;;6342140;28;19980;-66
2021/07/31 10:05:08;;;;;;;;;;;16.60;99.90;;;;;;6336199;28;20002;-66
2021/07/31 10:08:10;;;;;;;;;;;16.60;99.90;;;;;;6343325;28;19998;-66
2021/07/31 10:11:12;;;;;;;;;;;16.60;99.90;;;;;;6315530;28;20063;-66
2021/07/31 10:14:14;;;;;;;;;;;16.60;99.90;;;;;;6336187;28;19976;-66
2021/07/31 10:17:16;;;;;;;;;;;16.70;99.90;;;;;;6341795;28;20467;-66
2021/07/31 10:20:25;;;;;;;;;;;16.80;99.90;;;;;;6316206;28;19976;-66
2021/07/31 10:23:45;;;;;;;;;;;16.80;99.90;;;;;;6339258;28;19983;-66
2021/07/31 10:27:06;;;;;;;;;;;16.80;99.90;;;;;;6323082;28;19976;-67
2021/07/31 10:30:26;;;;;;;;;;;16.80;99.90;;;;;;6341308;28;19987;-67
2021/07/31 10:33:46;;;;;;;;;;;16.80;99.90;;;;;;6337058;28;20003;-67
2021/07/31 10:36:51;;;;;;;;;;;16.80;99.90;;;;;;6344576;28;19976;-66
2021/07/31 10:39:53;;;;;;;;;;;16.80;99.90;;;;;;6347255;28;19976;-66
2021/07/31 10:42:55;;;;;;;;;;;16.80;99.90;;;;;;6336473;28;19982;-66
2021/07/31 10:46:15;;;;;;;;;;;16.80;99.90;;;;;;6331467;28;20338;-66
2021/07/31 10:49:43;;;;;;;;;;;16.80;99.90;;;;;;6345132;28;19999;-67
2021/07/31 10:52:52;;;;;;;;;;;16.90;99.90;;;;;;6338052;28;19979;-66
2021/07/31 10:55:56;;;;;;;;;;;16.90;99.90;;;;;;6349329;28;20380;-66
2021/07/31 10:59:14;;;;;;;;;;;17.00;99.90;;;;;;6347997;28;19980;-67
2021/07/31 11:02:32;;;;;;;;;;;17.10;99.90;;;;;;6340214;28;20029;-67
2021/07/31 11:05:58;;;;;;;;;;;17.10;99.90;;;;;;6325727;28;20453;-66
2021/07/31 11:09:09;;;;;;;;;;;17.10;99.90;;;;;;6344244;28;19988;-66
2021/07/31 11:12:29;;;;;;;;;;;17.20;99.90;;;;;;6344270;28;19987;-67
2021/07/31 11:15:31;;;;;;;;;;;17.20;99.90;;;;;;6344713;28;19973;-66
2021/07/31 11:18:36;;;;;;;;;;;17.20;99.90;;;;;;6338932;28;19992;-66
2021/07/31 11:21:42;;;;;;;;;;;17.30;99.90;;;;;;6316540;28;19980;-67
2021/07/31 11:24:44;;;;;;;;;;;17.30;99.90;;;;;;6345980;28;19979;-67
2021/07/31 11:27:53;;;;;;;;;;;17.30;99.90;;;;;;6347375;28;19991;-67
2021/07/31 11:30:54;;;;;;;;;;;17.30;99.90;;;;;;6313769;28;20404;-68
2021/07/31 11:34:08;;;;;;;;;;;17.40;99.90;;;;;;6326468;28;19983;-67
2021/07/31 11:37:09;;;;;;;;;;;17.50;99.90;;;;;;6346316;28;19976;-68
2021/07/31 11:40:11;;;;;;;;;;;17.60;99.90;;;;;;6348023;28;20445;-67
2021/07/31 11:43:13;;;;;;;;;;;17.70;99.90;;;;;;6339003;28;19979;-66
2021/07/31 11:46:30;;;;;;;;;;;17.80;99.90;;;;;;6309721;28;19979;-67
2021/07/31 11:49:36;;;;;;;;;;;17.90;99.90;;;;;;6345008;28;20083;-66
2021/07/31 11:52:37;;;;;;;;;;;18.00;99.90;;;;;;6321609;28;19976;-67
2021/07/31 11:55:39;;;;;;;;;;;18.10;99.90;;;;;;6347378;28;19952;-67
2021/07/31 11:58:42;;;;;;;;;;;18.10;99.90;;;;;;6346179;28;19979;-66
2021/07/31 12:01:47;;;;;;;;;;;18.10;99.90;;;;;;6317573;28;19976;-67
2021/07/31 12:04:50;;;;;;;;;;;18.10;99.90;;;;;;6340851;28;19976;-67
2021/07/31 12:07:52;;;;;;;;;;;18.00;99.90;;;;;;6325943;28;19992;-67
2021/07/31 12:10:54;;;;;;;;;;;18.00;99.90;;;;;;6347263;28;20528;-67
2021/07/31 12:13:56;;;;;;;;;;;18.00;99.90;;;;;;6340584;28;20029;-66
2021/07/31 12:17:14;;;;;;;;;;;18.00;99.90;;;;;;6345484;28;20022;-66
2021/07/31 12:20:27;;;;;;;;;;;18.10;99.90;;;;;;6321164;28;20611;-66
2021/07/31 12:23:35;;;;;;;;;;;18.30;99.90;;;;;;6309529;28;20397;-66
2021/07/31 12:26:36;;;;;;;;;;;18.40;99.90;;;;;;6347439;28;19994;-67
2021/07/31 12:29:39;;;;;;;;;;;18.40;99.90;;;;;;6320137;28;19991;-66
2021/07/31 12:32:43;;;;;;;;;;;18.40;99.90;;;;;;6322944;28;19999;-66
2021/07/31 12:35:46;;;;;;;;;;;18.30;99.90;;;;;;6347306;28;19976;-67
2021/07/31 12:38:48;;;;;;;;;;;18.30;99.90;;;;;;6345917;28;19995;-67
2021/07/31 12:41:50;;;;;;;;;;;18.30;99.90;;;;;;6313515;28;19972;-66
2021/07/31 12:44:52;;;;;;;;;;;18.40;99.90;;;;;;6343365;28;19972;-66
2021/07/31 12:47:54;;;;;;;;;;;18.30;99.90;;;;;;6344909;28;19995;-66
2021/07/31 12:50:56;;;;;;;;;;;18.40;99.90;;;;;;6315049;28;19975;-66
2021/07/31 12:53:57;;;;;;;;;;;18.50;99.90;;;;;;6314509;28;19976;-66
2021/07/31 12:56:59;;;;;;;;;;;18.60;99.90;;;;;;6313942;28;20075;-66
2021/07/31 13:00:05;;;;;;;;;;;18.80;99.90;;;;;;6345665;28;19984;-66
2021/07/31 13:03:27;;;;;;;;;;;19.00;99.90;;;;;;6340307;28;21443;-66
2021/07/31 13:06:30;;;;;;;;;;;19.10;99.90;;;;;;6328486;28;19982;-66
2021/07/31 13:09:32;;;;;;;;;;;19.20;99.90;;;;;;6337796;28;19981;-66
2021/07/31 13:12:34;;;;;;;;;;;19.30;99.90;;;;;;6337950;28;19995;-66
2021/07/31 13:15:37;;;;;;;;;;;19.30;99.90;;;;;;6344181;28;19986;-66
2021/07/31 13:18:38;;;;;;;;;;;19.30;99.90;;;;;;6336061;28;20006;-66
2021/07/31 13:21:40;;;;;;;;;;;19.10;99.90;;;;;;6340244;28;20005;-66
2021/07/31 13:24:42;;;;;;;;;;;19.10;99.90;;;;;;6341814;28;19980;-67
2021/07/31 13:27:43;;;;;;;;;;;19.10;99.90;;;;;;6344109;28;19971;-66
2021/07/31 13:30:45;;;;;;;;;;;19.20;99.90;;;;;;6346087;28;20387;-66
2021/07/31 13:33:47;;;;;;;;;;;19.40;99.90;;;;;;6306592;28;19976;-66
2021/07/31 13:36:50;;;;;;;;;;;19.50;99.90;;;;;;6344987;28;20442;-66
2021/07/31 13:39:53;;;;;;;;;;;19.60;99.90;;;;;;6344767;28;19976;-66
2021/07/31 13:42:54;;;;;;;;;;;19.70;99.90;;;;;;6337426;28;19979;-66
2021/07/31 13:45:56;;;;;;;;;;;19.60;99.90;;;;;;6345465;28;19976;-66
2021/07/31 13:48:58;;;;;;;;;;;19.60;99.90;;;;;;6343339;28;19996;-66
2021/07/31 13:52:02;;;;;;;;;;;19.50;99.90;;;;;;6342318;28;19987;-69
2021/07/31 13:55:04;;;;;;;;;;;19.40;99.90;;;;;;6344767;28;20289;-69
2021/07/31 13:58:06;;;;;;;;;;;19.30;99.90;;;;;;6343698;28;20450;-69
2021/07/31 14:01:08;;;;;;;;;;;19.20;99.90;;;;;;6344391;28;19980;-69
2021/07/31 14:04:10;;;;;;;;;;;19.10;99.90;;;;;;6339393;28;19968;-69
2021/07/31 14:07:11;;;;;;;;;;;19.00;99.90;;;;;;6312106;28;19983;-69
2021/07/31 14:10:13;;;;;;;;;;;18.90;99.90;;;;;;6319723;28;19991;-70
2021/07/31 14:13:15;;;;;;;;;;;18.80;99.90;;;;;;6337675;28;20453;-70
2021/07/31 14:16:17;;;;;;;;;;;18.90;99.90;;;;;;6344585;28;19976;-70
2021/07/31 14:19:18;;;;;;;;;;;18.90;99.90;;;;;;6333711;28;20392;-69
2021/07/31 14:22:20;;;;;;;;;;;18.80;99.90;;;;;;6334094;28;19975;-69
2021/07/31 14:25:27;;;;;;;;;;;18.80;99.90;;;;;;6327013;28;19983;-69
2021/07/31 14:28:29;;;;;;;;;;;18.80;99.90;;;;;;6342986;28;19998;-69
2021/07/31 14:31:31;;;;;;;;;;;18.90;99.90;;;;;;6342481;28;20494;-69
2021/07/31 14:34:32;;;;;;;;;;;19.00;99.90;;;;;;6342096;28;19975;-68
2021/07/31 14:37:34;;;;;;;;;;;19.10;99.90;;;;;;6343044;28;19972;-69
2021/07/31 14:40:36;;;;;;;;;;;19.20;99.90;;;;;;6344261;28;20027;-67
2021/07/31 14:43:41;;;;;;;;;;;19.10;99.90;;;;;;6311760;28;19976;-67
2021/07/31 14:46:42;;;;;;;;;;;19.00;99.90;;;;;;6338662;28;20472;-66
2021/07/31 14:49:44;;;;;;;;;;;18.90;99.90;;;;;;6324323;28;20233;-67
2021/07/31 14:52:46;;;;;;;;;;;18.80;99.90;;;;;;6334741;28;20361;-66
2021/07/31 14:55:47;;;;;;;;;;;18.90;99.90;;;;;;6343414;28;20025;-67
2021/07/31 14:58:52;;;;;;;;;;;19.10;99.90;;;;;;6342495;28;19976;-67
2021/07/31 15:01:53;;;;;;;;;;;19.20;99.90;;;;;;6313834;28;19987;-66
2021/07/31 15:04:55;;;;;;;;;;;19.30;99.90;;;;;;6337318;28;20133;-66
2021/07/31 15:07:57;;;;;;;;;;;19.50;99.90;;;;;;6342576;28;19998;-66
2021/07/31 15:10:59;;;;;;;;;;;19.60;99.90;;;;;;6311132;28;20029;-66
2021/07/31 15:14:00;;;;;;;;;;;19.70;99.90;;;;;;6337415;28;20334;-67
2021/07/31 15:17:02;;;;;;;;;;;19.80;99.90;;;;;;6342354;28;20056;-66
2021/07/31 15:20:04;;;;;;;;;;;19.90;99.90;;;;;;6315222;28;20461;-66
2021/07/31 15:23:06;;;;;;;;;;;19.90;99.90;;;;;;6314168;28;19979;-66
2021/07/31 15:26:07;;;;;;;;;;;19.90;99.90;;;;;;6301023;28;20033;-67
2021/07/31 15:29:09;;;;;;;;;;;19.80;99.90;;;;;;6319657;28;20015;-67
2021/07/31 15:32:11;;;;;;;;;;;19.70;99.90;;;;;;6316758;28;19986;-67
2021/07/31 15:35:12;;;;;;;;;;;19.60;99.90;;;;;;6319567;28;19987;-66
2021/07/31 15:38:14;;;;;;;;;;;19.60;99.90;;;;;;6318523;28;19995;-66
2021/07/31 15:41:16;;;;;;;;;;;19.60;99.90;;;;;;6297796;28;19972;-67
2021/07/31 15:44:18;;;;;;;;;;;19.60;99.90;;;;;;6317931;28;19944;-67
2021/07/31 15:47:19;;;;;;;;;;;19.60;99.90;;;;;;6301101;28;19987;-67
2021/07/31 15:50:21;;;;;;;;;;;19.60;99.90;;;;;;6300556;28;20114;-66
2021/07/31 15:53:24;;;;;;;;;;;19.60;99.90;;;;;;6316810;28;20041;-67
2021/07/31 15:56:26;;;;;;;;;;;19.60;99.90;;;;;;6320293;28;20017;-67
2021/07/31 15:59:27;;;;;;;;;;;19.70;99.90;;;;;;6301841;28;20327;-67
2021/07/31 16:02:29;;;;;;;;;;;19.80;99.90;;;;;;6315370;28;20062;-67
2021/07/31 16:05:31;;;;;;;;;;;19.90;99.90;;;;;;6301288;28;19984;-67
2021/07/31 16:08:32;;;;;;;;;;;20.00;99.90;;;;;;6319465;28;20227;-67
2021/07/31 16:11:34;;;;;;;;;;;20.20;99.90;;;;;;6298737;28;20312;-67
2021/07/31 16:14:36;;;;;;;;;;;20.30;99.90;;;;;;6317465;28;19951;-67
2021/07/31 16:17:38;;;;;;;;;;;20.50;99.90;;;;;;6316486;28;20482;-67
2021/07/31 16:20:59;;;;;;;;;;;20.70;99.90;;;;;;6316414;28;19987;-66
2021/07/31 16:24:01;;;;;;;;;;;21.00;99.90;;;;;;6317267;28;20442;-67
2021/07/31 16:27:02;;;;;;;;;;;21.10;99.90;;;;;;6316718;28;20435;-67
2021/07/31 16:30:06;;;;;;;;;;;21.10;99.90;;;;;;6317821;28;20451;-67
2021/07/31 16:33:08;;;;;;;;;;;21.10;99.90;;;;;;6315748;28;20660;-67
2021/07/31 16:36:10;;;;;;;;;;;21.20;99.90;;;;;;6314482;28;19980;-66
2021/07/31 16:39:11;;;;;;;;;;;21.20;99.90;;;;;;6315879;28;20411;-66
2021/07/31 16:42:13;;;;;;;;;;;21.30;99.90;;;;;;6315073;28;19990;-67
2021/07/31 16:45:15;;;;;;;;;;;21.40;99.90;;;;;;6316797;28;19976;-67
2021/07/31 16:48:17;;;;;;;;;;;21.40;99.90;;;;;;6316485;28;19972;-67
2021/07/31 16:51:18;;;;;;;;;;;21.50;99.90;;;;;;6317512;28;19976;-67
2021/07/31 16:54:20;;;;;;;;;;;21.50;99.90;;;;;;6316725;28;20435;-67
2021/07/31 16:57:22;;;;;;;;;;;21.50;99.90;;;;;;6316522;28;20419;-67
2021/07/31 17:00:24;;;;;;;;;;;21.40;99.90;;;;;;6316991;28;19976;-67
2021/07/31 17:03:27;;;;;;;;;;;21.40;99.90;;;;;;6317277;28;20414;-67
2021/07/31 17:06:28;;;;;;;;;;;21.30;99.90;;;;;;6300357;28;20335;-67
2021/07/31 17:09:30;;;;;;;;;;;21.20;99.90;;;;;;6317329;28;20373;-67
2021/07/31 17:12:32;;;;;;;;;;;21.10;99.90;;;;;;6312757;28;19975;-67
2021/07/31 17:15:34;;;;;;;;;;;21.00;99.90;;;;;;6299128;28;19972;-67
2021/07/31 17:18:35;;;;;;;;;;;20.90;99.90;;;;;;6298026;28;20080;-67
2021/07/31 17:21:37;;;;;;;;;;;20.80;99.90;;;;;;6314871;28;20357;-67
2021/07/31 17:24:39;;;;;;;;;;;20.60;99.90;;;;;;6296771;28;19980;-67
2021/07/31 17:27:40;;;;;;;;;;;20.50;99.90;;;;;;6315768;28;20071;-67
2021/07/31 17:30:42;;;;;;;;;;;20.40;99.90;;;;;;6315503;28;19995;-67
2021/07/31 17:33:44;;;;;;;;;;;20.30;99.90;;;;;;6315572;28;19987;-67
2021/07/31 17:36:49;;;;;;;;;;;20.20;99.90;;;;;;6317332;28;19979;-66
2021/07/31 17:39:50;;;;;;;;;;;20.20;99.90;;;;;;6317032;28;19980;-67
2021/07/31 17:42:52;;;;;;;;;;;20.10;99.90;;;;;;6314814;28;19979;-66
2021/07/31 17:45:54;;;;;;;;;;;20.10;99.90;;;;;;6297667;28;19976;-67
2021/07/31 17:48:56;;;;;;;;;;;20.10;99.90;;;;;;6314978;28;20404;-67
2021/07/31 17:51:58;;;;;;;;;;;20.10;99.90;;;;;;6313286;28;19983;-67